Time;durP1;ratioP1;P1;durP2;ratioP2;P2;SDS_P1;SDS_P2;PMS_P1;PMS_P2;Temp;Humidity;BMP_temperature;BMP_pressure;BME280_temperature;BME280_humidity;BME280_pressure;Samples;Min_cycle;Max_cycle;Signal;HPM_P1;HPM_P2
2023/01/18 00:00:16;;;;;;;;;15.25;14.75;;;;;;;;4908345;28;46977;-72
2023/01/18 00:02:45;;;;;;;;;22.75;20.25;;;;;;;;4908256;28;46507;-72
2023/01/18 00:05:11;;;;;;;;;14.75;14.75;;;;;;;;4907818;28;45516;-72
2023/01/18 00:07:36;;;;;;;;;27.75;23.50;;;;;;;;4909353;28;45465;-73
2023/01/18 00:10:01;;;;;;;;;22.50;15.00;;;;;;;;4908044;28;46250;-73
2023/01/18 00:12:26;;;;;;;;;23.50;23.50;;;;;;;;4906949;28;45314;-73
2023/01/18 00:14:52;;;;;;;;;24.50;22.50;;;;;;;;4905718;28;45188;-73
2023/01/18 00:17:17;;;;;;;;;30.00;24.50;;;;;;;;4899279;28;45418;-73
2023/01/18 00:19:42;;;;;;;;;19.50;17.50;;;;;;;;4899381;28;45315;-73
2023/01/18 00:22:07;;;;;;;;;27.00;23.00;;;;;;;;4899443;28;45246;-73
2023/01/18 00:24:32;;;;;;;;;28.50;24.00;;;;;;;;4897406;29;45395;-73
2023/01/18 00:26:58;;;;;;;;;31.25;27.75;;;;;;;;4899272;28;45371;-73
2023/01/18 00:29:23;;;;;;;;;33.00;28.25;;;;;;;;4899206;28;46928;-73
2023/01/18 00:31:48;;;;;;;;;28.00;26.00;;;;;;;;4899437;28;45267;-74
2023/01/18 00:34:13;;;;;;;;;30.25;23.75;;;;;;;;4899172;28;45279;-74
2023/01/18 00:36:39;;;;;;;;;29.00;26.75;;;;;;;;4899514;29;45375;-73
2023/01/18 00:39:04;;;;;;;;;28.25;26.50;;;;;;;;4898546;28;45347;-74
2023/01/18 00:41:30;;;;;;;;;25.00;24.00;;;;;;;;4898902;28;45294;-73
2023/01/18 00:43:55;;;;;;;;;29.00;24.75;;;;;;;;4899440;28;45329;-73
2023/01/18 00:46:21;;;;;;;;;27.50;27.25;;;;;;;;4898969;28;45483;-73
2023/01/18 00:48:47;;;;;;;;;35.00;27.00;;;;;;;;4898838;28;46643;-73
2023/01/18 00:51:13;;;;;;;;;27.50;26.00;;;;;;;;4901024;28;45450;-74
2023/01/18 00:53:39;;;;;;;;;30.25;27.75;;;;;;;;4917783;28;45570;-73
2023/01/18 00:56:08;;;;;;;;;32.00;28.25;;;;;;;;4917950;28;45326;-73
2023/01/18 00:58:34;;;;;;;;;38.50;32.50;;;;;;;;4918024;28;46153;-73
2023/01/18 01:00:59;;;;;;;;;29.75;27.25;;;;;;;;4917433;28;45477;-73
2023/01/18 01:03:24;;;;;;;;;35.00;32.00;;;;;;;;4917152;28;45330;-73
2023/01/18 01:08:33;;;;;;;;;33.00;29.50;;;;;;;;4917537;28;45318;-74
2023/01/18 01:11:11;;;;;;;;;25.00;24.25;;;;;;;;4917974;28;45334;-74
2023/01/18 01:27:16;;;;;;;;;26.00;23.00;;;;;;;;4917378;28;45291;-73
2023/01/18 01:29:42;;;;;;;;;27.75;23.25;;;;;;;;4917301;28;45275;-73
2023/01/18 01:32:07;;;;;;;;;26.75;23.75;;;;;;;;4917412;28;45267;-74
2023/01/18 01:34:33;;;;;;;;;25.25;21.50;;;;;;;;4917582;28;45319;-74
2023/01/18 01:36:58;;;;;;;;;24.00;22.25;;;;;;;;4918347;28;45273;-73
2023/01/18 01:39:23;;;;;;;;;26.75;22.50;;;;;;;;4920830;28;45480;-73
2023/01/18 01:41:49;;;;;;;;;23.25;22.00;;;;;;;;4920868;28;45606;-74
2023/01/18 01:44:18;;;;;;;;;23.00;21.25;;;;;;;;4920431;28;45369;-73
2023/01/18 01:46:43;;;;;;;;;23.25;21.75;;;;;;;;4920485;28;45458;-74
2023/01/18 01:49:08;;;;;;;;;23.50;20.25;;;;;;;;4920513;28;45688;-73
2023/01/18 01:51:36;;;;;;;;;19.25;16.50;;;;;;;;4920309;28;45546;-74
2023/01/18 01:54:03;;;;;;;;;23.00;21.50;;;;;;;;4921098;28;45635;-73
2023/01/18 01:56:28;;;;;;;;;27.25;25.25;;;;;;;;4920573;28;45537;-73
2023/01/18 01:58:55;;;;;;;;;26.00;18.00;;;;;;;;4920414;28;45406;-73
2023/01/18 02:01:20;;;;;;;;;21.50;21.25;;;;;;;;4920827;28;45469;-74
2023/01/18 02:03:46;;;;;;;;;24.25;19.00;;;;;;;;4920623;28;45696;-73
2023/01/18 02:06:15;;;;;;;;;22.25;19.75;;;;;;;;4918926;28;45361;-73
2023/01/18 02:08:43;;;;;;;;;19.50;18.25;;;;;;;;4920198;28;47261;-73
2023/01/18 02:11:08;;;;;;;;;21.25;19.75;;;;;;;;4920317;28;45331;-73
2023/01/18 02:13:33;;;;;;;;;22.75;20.75;;;;;;;;4919354;28;45367;-73
2023/01/18 02:16:04;;;;;;;;;22.00;20.50;;;;;;;;4920834;28;45323;-73
2023/01/18 02:18:37;;;;;;;;;23.75;21.00;;;;;;;;4920459;28;46240;-72
2023/01/18 02:21:10;;;;;;;;;23.50;23.50;;;;;;;;4920408;28;45440;-73
2023/01/18 02:23:54;;;;;;;;;20.00;19.00;;;;;;;;4921337;28;45408;-73
2023/01/18 02:26:34;;;;;;;;;24.25;20.50;;;;;;;;4920815;28;45422;-73
2023/01/18 02:29:06;;;;;;;;;29.00;26.75;;;;;;;;4920014;28;45389;-73
2023/01/18 02:31:38;;;;;;;;;21.75;20.00;;;;;;;;4919960;28;45362;-73
2023/01/18 02:34:04;;;;;;;;;23.00;21.00;;;;;;;;4918965;28;45603;-73
2023/01/18 02:36:48;;;;;;;;;19.50;18.75;;;;;;;;4919869;28;45382;-73
2023/01/18 02:39:37;;;;;;;;;17.50;17.50;;;;;;;;4919992;28;45278;-73
2023/01/18 02:47:37;;;;;;;;;19.00;18.75;;;;;;;;4881384;29;45355;-73
2023/01/18 02:50:03;;;;;;;;;24.00;20.00;;;;;;;;4880139;28;45339;-73
2023/01/18 02:52:41;;;;;;;;;22.75;21.25;;;;;;;;4905602;28;45430;-73
2023/01/18 02:55:22;;;;;;;;;32.75;28.75;;;;;;;;4920042;28;45348;-72
2023/01/18 02:57:47;;;;;;;;;24.25;21.25;;;;;;;;4919848;28;45361;-73
2023/01/18 03:00:17;;;;;;;;;28.75;27.00;;;;;;;;4919474;28;47348;-73
2023/01/18 03:02:45;;;;;;;;;26.25;24.75;;;;;;;;4919841;28;45371;-73
2023/01/18 03:05:10;;;;;;;;;24.25;23.25;;;;;;;;4919401;28;45359;-73
2023/01/18 03:07:36;;;;;;;;;24.50;23.25;;;;;;;;4918116;28;45451;-73
2023/01/18 03:10:03;;;;;;;;;32.75;24.25;;;;;;;;4919709;28;45341;-73
2023/01/18 03:12:46;;;;;;;;;32.50;28.75;;;;;;;;4919710;28;45346;-73
2023/01/18 03:15:17;;;;;;;;;21.50;20.75;;;;;;;;4919776;28;45303;-72
2023/01/18 03:17:49;;;;;;;;;24.75;23.75;;;;;;;;4920035;28;45354;-73
2023/01/18 03:20:17;;;;;;;;;25.50;23.50;;;;;;;;4919184;28;46154;-73
2023/01/18 03:25:32;;;;;;;;;25.75;25.75;;;;;;;;4893545;29;45329;-74
2023/01/18 03:33:43;;;;;;;;;30.25;28.00;;;;;;;;4900396;29;45229;-74
2023/01/18 03:36:11;;;;;;;;;23.25;22.50;;;;;;;;4900581;28;45323;-73
2023/01/18 03:38:38;;;;;;;;;27.00;23.75;;;;;;;;4900636;28;45291;-73
2023/01/18 03:41:05;;;;;;;;;21.50;19.25;;;;;;;;4900015;28;46229;-74
2023/01/18 03:43:35;;;;;;;;;25.00;21.50;;;;;;;;4898201;29;45366;-74
2023/01/18 03:46:01;;;;;;;;;20.75;20.50;;;;;;;;4889684;29;45360;-74
2023/01/18 03:48:26;;;;;;;;;22.75;21.00;;;;;;;;4880976;29;45382;-74
2023/01/18 03:50:51;;;;;;;;;23.25;21.50;;;;;;;;4880917;29;46353;-73
2023/01/18 03:53:49;;;;;;;;;28.75;24.25;;;;;;;;4904179;28;45337;-74
2023/01/18 03:56:43;;;;;;;;;22.00;19.00;;;;;;;;4868859;29;45519;-73
2023/01/18 03:59:08;;;;;;;;;19.00;18.75;;;;;;;;4850546;29;45365;-73
2023/01/18 04:01:34;;;;;;;;;25.25;18.25;;;;;;;;4860239;29;45994;-74
2023/01/18 04:03:59;;;;;;;;;21.75;20.25;;;;;;;;4858999;29;45479;-73
2023/01/18 04:06:25;;;;;;;;;23.00;20.50;;;;;;;;4859545;29;45399;-73
2023/01/18 04:08:51;;;;;;;;;20.25;18.75;;;;;;;;4859994;29;45378;-73
2023/01/18 04:11:16;;;;;;;;;23.50;21.75;;;;;;;;4859267;29;47250;-73
2023/01/18 04:13:41;;;;;;;;;29.75;24.25;;;;;;;;4859128;29;45342;-73
2023/01/18 04:16:07;;;;;;;;;28.25;23.75;;;;;;;;4859770;29;45394;-73
2023/01/18 04:18:32;;;;;;;;;20.50;18.50;;;;;;;;4858613;29;45289;-73
2023/01/18 04:20:57;;;;;;;;;19.00;18.00;;;;;;;;4843366;29;48288;-73
2023/01/18 04:23:23;;;;;;;;;24.00;21.75;;;;;;;;4859537;29;45484;-73
2023/01/18 04:25:49;;;;;;;;;17.50;14.00;;;;;;;;4859669;29;45463;-74
2023/01/18 04:28:15;;;;;;;;;25.75;22.25;;;;;;;;4865544;29;45366;-74
2023/01/18 04:30:40;;;;;;;;;19.75;18.75;;;;;;;;4866176;29;46373;-73
2023/01/18 04:33:05;;;;;;;;;16.25;16.00;;;;;;;;4878974;29;45866;-74
2023/01/18 04:35:30;;;;;;;;;22.00;22.00;;;;;;;;4880660;29;45355;-74
2023/01/18 04:37:55;;;;;;;;;20.75;18.25;;;;;;;;4880340;29;45382;-74
2023/01/18 04:40:21;;;;;;;;;24.00;21.25;;;;;;;;4880108;29;45471;-73
2023/01/18 04:42:53;;;;;;;;;12.50;10.25;;;;;;;;4882952;29;45272;-73
2023/01/18 04:45:18;;;;;;;;;18.25;18.25;;;;;;;;4899416;29;45418;-73
2023/01/18 04:47:43;;;;;;;;;24.25;21.50;;;;;;;;4898941;28;45386;-73
2023/01/18 04:50:09;;;;;;;;;23.00;20.00;;;;;;;;4899070;29;45469;-73
2023/01/18 04:52:34;;;;;;;;;25.25;23.25;;;;;;;;4899000;28;45228;-73
2023/01/18 04:54:59;;;;;;;;;25.25;23.75;;;;;;;;4899244;28;45478;-73
2023/01/18 04:57:25;;;;;;;;;22.75;21.00;;;;;;;;4898925;28;45466;-73
2023/01/18 04:59:50;;;;;;;;;20.00;20.00;;;;;;;;4899029;28;46221;-73
2023/01/18 05:02:15;;;;;;;;;25.00;24.25;;;;;;;;4891024;28;45532;-73
2023/01/18 05:04:40;;;;;;;;;21.75;18.50;;;;;;;;4885621;28;45332;-73
2023/01/18 05:07:06;;;;;;;;;23.25;22.25;;;;;;;;4880015;29;45366;-73
2023/01/18 05:09:31;;;;;;;;;29.50;21.50;;;;;;;;4879685;29;46323;-73
2023/01/18 05:11:56;;;;;;;;;23.00;22.25;;;;;;;;4880242;29;45354;-73
2023/01/18 05:14:21;;;;;;;;;19.00;19.00;;;;;;;;4879983;28;45558;-72
2023/01/18 05:16:46;;;;;;;;;20.25;17.25;;;;;;;;4879950;29;45503;-72
2023/01/18 05:19:12;;;;;;;;;27.25;24.75;;;;;;;;4879976;29;45291;-72
2023/01/18 05:21:37;;;;;;;;;27.75;26.50;;;;;;;;4880165;29;45452;-72
2023/01/18 05:24:02;;;;;;;;;26.50;23.25;;;;;;;;4880857;29;45343;-74
2023/01/18 05:26:28;;;;;;;;;18.25;18.00;;;;;;;;4880813;29;45439;-72
2023/01/18 05:28:57;;;;;;;;;19.75;19.75;;;;;;;;4880702;29;45483;-72
2023/01/18 05:31:22;;;;;;;;;24.25;23.25;;;;;;;;4879525;29;45351;-73
2023/01/18 05:33:47;;;;;;;;;26.75;26.75;;;;;;;;4888112;28;45387;-72
2023/01/18 05:36:13;;;;;;;;;27.50;24.25;;;;;;;;4879543;29;45618;-73
2023/01/18 05:38:38;;;;;;;;;22.00;22.00;;;;;;;;4879553;29;46671;-73
2023/01/18 05:41:03;;;;;;;;;21.00;17.25;;;;;;;;4893874;29;45462;-73
2023/01/18 05:43:28;;;;;;;;;20.00;18.25;;;;;;;;4879598;29;45405;-73
2023/01/18 05:45:54;;;;;;;;;28.25;21.00;;;;;;;;4879480;29;45341;-73
2023/01/18 05:48:20;;;;;;;;;23.00;22.25;;;;;;;;4886350;29;45543;-74
2023/01/18 05:50:46;;;;;;;;;26.00;20.50;;;;;;;;4897847;29;45385;-73
2023/01/18 05:53:13;;;;;;;;;27.25;25.25;;;;;;;;4914703;28;45299;-73
2023/01/18 05:55:38;;;;;;;;;19.25;15.25;;;;;;;;4917466;28;45321;-73
2023/01/18 05:58:04;;;;;;;;;19.25;19.00;;;;;;;;4916635;28;45674;-73
2023/01/18 06:00:29;;;;;;;;;22.50;20.75;;;;;;;;4917422;28;45291;-75
2023/01/18 06:02:54;;;;;;;;;27.50;21.25;;;;;;;;4917169;28;45441;-73
2023/01/18 06:05:20;;;;;;;;;20.25;18.75;;;;;;;;4917211;28;45377;-74
2023/01/18 06:07:46;;;;;;;;;25.75;21.50;;;;;;;;4916766;28;46378;-74
2023/01/18 06:10:12;;;;;;;;;32.00;27.00;;;;;;;;4917148;28;45378;-74
2023/01/18 06:12:37;;;;;;;;;23.00;21.75;;;;;;;;4910051;28;45451;-74
2023/01/18 06:15:03;;;;;;;;;27.50;25.50;;;;;;;;4887285;29;45345;-74
2023/01/18 06:17:30;;;;;;;;;24.50;21.50;;;;;;;;4893495;29;47967;-74
2023/01/18 06:19:55;;;;;;;;;22.50;21.50;;;;;;;;4879237;29;45408;-75
2023/01/18 06:22:21;;;;;;;;;30.25;28.00;;;;;;;;4880931;29;45381;-80
2023/01/18 06:24:46;;;;;;;;;27.50;22.50;;;;;;;;4882620;29;45525;-74
2023/01/18 06:27:11;;;;;;;;;25.25;19.50;;;;;;;;4896545;28;45753;-74
2023/01/18 06:29:36;;;;;;;;;25.00;23.50;;;;;;;;4882538;29;45362;-75
2023/01/18 06:32:02;;;;;;;;;23.50;21.75;;;;;;;;4891871;29;46024;-75
2023/01/18 06:34:27;;;;;;;;;21.00;20.25;;;;;;;;4899945;29;45362;-75
2023/01/18 06:36:52;;;;;;;;;22.50;19.75;;;;;;;;4899739;29;47425;-75
2023/01/18 06:39:17;;;;;;;;;22.00;20.00;;;;;;;;4901364;28;45518;-74
2023/01/18 06:41:43;;;;;;;;;22.50;19.25;;;;;;;;4901002;29;45409;-75
2023/01/18 06:44:08;;;;;;;;;24.00;21.75;;;;;;;;4900943;29;45347;-75
2023/01/18 06:46:33;;;;;;;;;19.50;17.00;;;;;;;;4900700;28;46451;-76
2023/01/18 06:48:58;;;;;;;;;27.00;22.50;;;;;;;;4900648;28;45286;-76
2023/01/18 06:51:23;;;;;;;;;16.75;16.75;;;;;;;;4904051;28;45437;-75
2023/01/18 06:53:49;;;;;;;;;23.75;22.50;;;;;;;;4920076;28;45537;-75
2023/01/18 06:56:15;;;;;;;;;19.25;19.25;;;;;;;;4918925;28;46023;-75
2023/01/18 06:58:40;;;;;;;;;22.75;22.75;;;;;;;;4902775;28;45514;-76
2023/01/18 07:01:06;;;;;;;;;24.00;23.50;;;;;;;;4889805;29;45370;-75
2023/01/18 07:03:31;;;;;;;;;36.75;28.00;;;;;;;;4881386;29;45499;-76
2023/01/18 07:05:58;;;;;;;;;28.00;24.00;;;;;;;;4881704;29;45329;-75
2023/01/18 07:08:25;;;;;;;;;22.50;22.50;;;;;;;;4883900;29;45385;-75
2023/01/18 07:10:51;;;;;;;;;29.75;26.75;;;;;;;;4889529;29;45303;-76
2023/01/18 07:13:16;;;;;;;;;31.75;23.00;;;;;;;;4881622;29;45272;-75
2023/01/18 07:15:42;;;;;;;;;32.00;22.75;;;;;;;;4881401;29;46409;-76
2023/01/18 07:18:07;;;;;;;;;24.75;23.50;;;;;;;;4880088;29;45245;-75
2023/01/18 07:20:32;;;;;;;;;23.00;21.75;;;;;;;;4881598;29;45363;-75
2023/01/18 07:22:58;;;;;;;;;24.00;22.25;;;;;;;;4881542;29;45248;-74
2023/01/18 07:25:24;;;;;;;;;30.25;22.25;;;;;;;;4881216;29;45312;-75
2023/01/18 07:27:49;;;;;;;;;23.75;22.50;;;;;;;;4895910;29;45376;-75
2023/01/18 07:30:15;;;;;;;;;29.25;27.25;;;;;;;;4881457;29;45300;-75
2023/01/18 07:32:45;;;;;;;;;31.00;28.50;;;;;;;;4881490;29;45360;-75
2023/01/18 07:35:11;;;;;;;;;38.50;33.50;;;;;;;;4881450;29;45483;-75
2023/01/18 07:37:37;;;;;;;;;33.00;31.25;;;;;;;;4881229;28;45520;-75
2023/01/18 07:40:02;;;;;;;;;28.75;28.75;;;;;;;;4881026;29;45341;-74
2023/01/18 07:42:28;;;;;;;;;29.25;25.75;;;;;;;;4881215;29;45444;-75
2023/01/18 07:44:53;;;;;;;;;30.75;28.75;;;;;;;;4881121;29;45414;-75
2023/01/18 07:47:18;;;;;;;;;23.50;23.25;;;;;;;;4881070;29;45361;-75
2023/01/18 07:49:43;;;;;;;;;31.25;29.25;;;;;;;;4881102;29;45351;-74
2023/01/18 07:52:09;;;;;;;;;29.25;27.75;;;;;;;;4899535;28;45391;-75
2023/01/18 07:54:34;;;;;;;;;33.50;29.50;;;;;;;;4918760;28;45319;-74
2023/01/18 07:56:59;;;;;;;;;33.25;29.25;;;;;;;;4918936;28;45476;-74
2023/01/18 07:59:26;;;;;;;;;33.00;27.25;;;;;;;;4919121;28;45621;-75
2023/01/18 08:01:51;;;;;;;;;25.75;21.25;;;;;;;;4919198;28;45331;-76
2023/01/18 08:04:17;;;;;;;;;32.50;25.00;;;;;;;;4918437;28;47415;-76
2023/01/18 08:06:42;;;;;;;;;23.50;22.00;;;;;;;;4918823;28;45381;-76
2023/01/18 08:09:07;;;;;;;;;29.00;24.75;;;;;;;;4917748;28;45414;-77
2023/01/18 08:11:32;;;;;;;;;34.75;28.25;;;;;;;;4919307;28;45385;-74
2023/01/18 08:13:57;;;;;;;;;33.25;24.50;;;;;;;;4919268;28;45469;-74
2023/01/18 08:16:23;;;;;;;;;31.25;29.25;;;;;;;;4918279;28;46060;-74
2023/01/18 08:18:48;;;;;;;;;25.75;24.00;;;;;;;;4919630;28;45290;-77
2023/01/18 08:21:14;;;;;;;;;29.50;26.75;;;;;;;;4920668;28;45309;-76
2023/01/18 08:23:39;;;;;;;;;32.00;27.25;;;;;;;;4920754;28;45303;-76
2023/01/18 08:26:05;;;;;;;;;26.25;21.75;;;;;;;;4920568;28;45310;-76
2023/01/18 08:28:30;;;;;;;;;26.00;24.50;;;;;;;;4918560;28;45180;-76
2023/01/18 08:31:07;;;;;;;;;28.75;25.00;;;;;;;;4915232;28;45307;-76
2023/01/18 08:33:34;;;;;;;;;25.50;23.75;;;;;;;;4899456;28;45370;-76
2023/01/18 08:36:00;;;;;;;;;28.25;24.00;;;;;;;;4899414;29;45471;-75
2023/01/18 08:38:25;;;;;;;;;29.50;27.25;;;;;;;;4898864;28;45372;-76
2023/01/18 08:40:50;;;;;;;;;34.25;27.25;;;;;;;;4899410;28;45406;-77
2023/01/18 08:43:16;;;;;;;;;33.25;32.00;;;;;;;;4899282;28;45504;-77
2023/01/18 08:45:41;;;;;;;;;29.25;28.00;;;;;;;;4897442;29;45374;-76
2023/01/18 08:48:08;;;;;;;;;30.25;29.50;;;;;;;;4899421;28;45444;-77
2023/01/18 08:50:34;;;;;;;;;28.25;24.00;;;;;;;;4899155;28;45347;-75
2023/01/18 08:52:59;;;;;;;;;26.75;23.50;;;;;;;;4914364;28;46193;-76
2023/01/18 08:55:25;;;;;;;;;28.25;25.00;;;;;;;;4918287;28;45374;-77
2023/01/18 08:57:54;;;;;;;;;26.75;22.00;;;;;;;;4918382;28;45256;-76
2023/01/18 09:00:21;;;;;;;;;27.00;24.75;;;;;;;;4918037;28;45227;-76
2023/01/18 09:02:47;;;;;;;;;28.50;25.50;;;;;;;;4918082;28;47200;-76
2023/01/18 09:05:12;;;;;;;;;27.75;23.25;;;;;;;;4918081;28;45471;-77
2023/01/18 09:07:38;;;;;;;;;33.00;28.75;;;;;;;;4917927;28;45477;-77
2023/01/18 09:10:03;;;;;;;;;26.75;24.75;;;;;;;;4918209;28;45390;-76
2023/01/18 09:12:28;;;;;;;;;33.50;29.50;;;;;;;;4917761;28;46308;-76
2023/01/18 09:14:54;;;;;;;;;35.50;33.25;;;;;;;;4918052;28;45334;-76
2023/01/18 09:17:20;;;;;;;;;37.50;35.50;;;;;;;;4918331;28;45353;-76
2023/01/18 09:19:45;;;;;;;;;30.50;30.00;;;;;;;;4918139;28;45561;-76
2023/01/18 09:22:10;;;;;;;;;38.00;34.50;;;;;;;;4917711;28;46995;-76
2023/01/18 09:24:36;;;;;;;;;25.00;23.75;;;;;;;;4917958;28;45393;-77
2023/01/18 09:27:01;;;;;;;;;30.50;29.75;;;;;;;;4916925;28;45422;-76
2023/01/18 09:29:26;;;;;;;;;32.25;27.25;;;;;;;;4917969;28;45284;-76
2023/01/18 09:31:53;;;;;;;;;27.25;25.75;;;;;;;;4918050;28;47298;-76
2023/01/18 09:34:18;;;;;;;;;25.25;23.75;;;;;;;;4916993;28;45358;-76
2023/01/18 09:36:43;;;;;;;;;25.75;24.00;;;;;;;;4917730;28;45319;-77
2023/01/18 09:39:08;;;;;;;;;29.25;27.75;;;;;;;;4917855;28;45449;-75
2023/01/18 09:41:38;;;;;;;;;32.25;27.50;;;;;;;;4917783;28;45565;-76
2023/01/18 09:44:09;;;;;;;;;27.50;24.00;;;;;;;;4917959;28;45461;-75
2023/01/18 09:46:36;;;;;;;;;25.00;22.00;;;;;;;;4917676;28;45323;-76
2023/01/18 09:49:03;;;;;;;;;23.25;22.00;;;;;;;;4917417;28;45403;-76
2023/01/18 09:51:37;;;;;;;;;23.75;19.50;;;;;;;;4916847;28;45693;-76
2023/01/18 09:54:17;;;;;;;;;27.25;24.00;;;;;;;;4917425;28;45379;-76
2023/01/18 09:56:42;;;;;;;;;23.75;20.00;;;;;;;;4918416;28;45366;-75
2023/01/18 09:59:17;;;;;;;;;22.00;20.75;;;;;;;;4920542;28;45315;-76
2023/01/18 10:01:43;;;;;;;;;23.75;22.00;;;;;;;;4920789;28;45606;-76
2023/01/18 10:04:22;;;;;;;;;16.25;15.25;;;;;;;;4920296;28;45278;-76
2023/01/18 10:06:55;;;;;;;;;18.25;18.25;;;;;;;;4920642;28;45400;-75
2023/01/18 10:09:20;;;;;;;;;16.00;16.00;;;;;;;;4919292;28;45359;-76
2023/01/18 10:11:54;;;;;;;;;20.50;14.75;;;;;;;;4920337;28;45428;-76
2023/01/18 10:14:28;;;;;;;;;16.00;14.75;;;;;;;;4920615;28;45452;-76
2023/01/18 10:16:58;;;;;;;;;14.75;13.50;;;;;;;;4920473;28;45330;-76
2023/01/18 10:19:28;;;;;;;;;19.75;14.75;;;;;;;;4919956;28;45382;-76
2023/01/18 10:22:06;;;;;;;;;12.50;12.50;;;;;;;;4920127;28;46559;-76
2023/01/18 10:24:47;;;;;;;;;10.00;9.50;;;;;;;;4920147;28;45433;-76
2023/01/18 10:27:30;;;;;;;;;11.50;11.50;;;;;;;;4920540;28;45387;-76
2023/01/18 10:30:02;;;;;;;;;13.25;10.50;;;;;;;;4918987;28;45629;-76
2023/01/18 10:32:29;;;;;;;;;13.00;11.00;;;;;;;;4919988;28;45411;-76
2023/01/18 10:34:54;;;;;;;;;12.75;10.75;;;;;;;;4919874;28;45395;-76
2023/01/18 10:37:25;;;;;;;;;10.00;9.75;;;;;;;;4920184;28;45370;-76
2023/01/18 10:39:56;;;;;;;;;10.00;10.00;;;;;;;;4920223;28;45398;-76
2023/01/18 10:42:22;;;;;;;;;13.75;10.25;;;;;;;;4919915;28;46361;-75
2023/01/18 10:44:48;;;;;;;;;8.75;8.25;;;;;;;;4919910;28;45378;-74
2023/01/18 10:47:15;;;;;;;;;8.00;8.00;;;;;;;;4920027;28;45279;-75
2023/01/18 10:49:42;;;;;;;;;5.50;5.50;;;;;;;;4919889;28;45282;-76
2023/01/18 10:52:25;;;;;;;;;8.75;6.50;;;;;;;;4919605;28;45654;-75
2023/01/18 10:55:00;;;;;;;;;7.50;6.50;;;;;;;;4919851;28;45379;-76
2023/01/18 10:57:27;;;;;;;;;5.75;5.50;;;;;;;;4920012;28;45437;-76
2023/01/18 10:59:54;;;;;;;;;9.25;7.25;;;;;;;;4919753;28;45454;-75
2023/01/18 11:02:48;;;;;;;;;6.00;5.75;;;;;;;;4919786;28;46164;-75
2023/01/18 11:05:16;;;;;;;;;7.00;7.00;;;;;;;;4909697;28;45557;-74
2023/01/18 11:07:41;;;;;;;;;10.75;9.75;;;;;;;;4918200;28;45291;-74
2023/01/18 11:10:21;;;;;;;;;9.00;7.75;;;;;;;;4919841;28;45402;-74
2023/01/18 11:12:50;;;;;;;;;7.50;7.50;;;;;;;;4919782;28;45397;-73
2023/01/18 11:15:16;;;;;;;;;8.75;5.25;;;;;;;;4918449;28;45446;-75
2023/01/18 11:17:45;;;;;;;;;4.50;3.75;;;;;;;;4918695;28;45389;-74
2023/01/18 11:20:15;;;;;;;;;9.00;9.00;;;;;;;;4919360;28;45568;-74
2023/01/18 11:22:52;;;;;;;;;8.00;8.00;;;;;;;;4918608;28;45752;-74
2023/01/18 11:25:17;;;;;;;;;5.25;5.25;;;;;;;;4904001;28;45363;-72
2023/01/18 11:27:42;;;;;;;;;9.00;6.50;;;;;;;;4900537;28;45500;-71
2023/01/18 11:30:23;;;;;;;;;9.25;8.25;;;;;;;;4900187;28;45391;-71
2023/01/18 11:32:52;;;;;;;;;7.75;7.00;;;;;;;;4900527;28;46117;-71
2023/01/18 11:35:27;;;;;;;;;10.00;10.00;;;;;;;;4899706;28;45508;-70
2023/01/18 11:37:56;;;;;;;;;8.75;7.50;;;;;;;;4900877;28;45292;-76
2023/01/18 11:40:26;;;;;;;;;9.25;9.25;;;;;;;;4900109;28;45312;-73
2023/01/18 11:42:57;;;;;;;;;5.00;5.00;;;;;;;;4898687;29;47886;-72
2023/01/18 11:45:28;;;;;;;;;3.00;2.50;;;;;;;;4900104;28;45383;-72
2023/01/18 11:47:56;;;;;;;;;14.75;6.00;;;;;;;;4918976;28;45171;-72
2023/01/18 11:50:27;;;;;;;;;8.25;7.25;;;;;;;;4909458;28;45382;-72
2023/01/18 11:53:07;;;;;;;;;10.00;9.00;;;;;;;;4914210;28;47298;-72
2023/01/18 11:55:35;;;;;;;;;4.50;4.50;;;;;;;;4918810;28;45365;-72
2023/01/18 11:58:04;;;;;;;;;10.25;8.25;;;;;;;;4918913;28;45504;-72
2023/01/18 12:00:35;;;;;;;;;8.00;8.00;;;;;;;;4918468;28;45323;-71
2023/01/18 12:03:16;;;;;;;;;7.50;5.75;;;;;;;;4918456;28;46095;-71
2023/01/18 12:05:44;;;;;;;;;5.00;5.00;;;;;;;;4917686;28;45413;-71
2023/01/18 12:08:15;;;;;;;;;4.25;2.25;;;;;;;;4899854;28;45405;-72
2023/01/18 12:10:43;;;;;;;;;5.25;5.25;;;;;;;;4899544;28;45435;-73
2023/01/18 12:13:17;;;;;;;;;5.00;4.00;;;;;;;;4899336;28;45529;-78
2023/01/18 12:15:54;;;;;;;;;7.50;4.50;;;;;;;;4899406;28;45390;-72
2023/01/18 12:18:20;;;;;;;;;4.00;4.00;;;;;;;;4899596;28;45513;-72
2023/01/18 12:20:49;;;;;;;;;4.00;4.00;;;;;;;;4898563;28;45342;-73
2023/01/18 12:23:14;;;;;;;;;4.50;4.50;;;;;;;;4899234;28;46181;-72
2023/01/18 12:25:42;;;;;;;;;11.75;10.75;;;;;;;;4897683;28;45355;-73
2023/01/18 12:28:32;;;;;;;;;5.50;5.50;;;;;;;;4898390;28;45401;-72
2023/01/18 12:31:20;;;;;;;;;11.75;11.75;;;;;;;;4897291;28;45304;-73
2023/01/18 12:33:45;;;;;;;;;6.50;6.50;;;;;;;;4896871;28;45521;-74
2023/01/18 12:36:51;;;;;;;;;7.50;6.25;;;;;;;;4897638;29;45346;-73
2023/01/18 12:39:34;;;;;;;;;5.25;4.00;;;;;;;;4874966;29;46740;-73
2023/01/18 12:42:32;;;;;;;;;3.25;2.00;;;;;;;;4876265;29;45462;-72
2023/01/18 12:45:15;;;;;;;;;3.75;2.50;;;;;;;;4801625;29;46416;-73
2023/01/18 12:47:50;;;;;;;;;2.25;2.25;;;;;;;;4802181;29;45498;-73
2023/01/18 12:50:19;;;;;;;;;3.00;3.00;;;;;;;;4804993;29;45585;-76
2023/01/18 12:52:47;;;;;;;;;3.00;3.00;;;;;;;;4801912;29;45478;-73
2023/01/18 12:55:16;;;;;;;;;3.00;3.00;;;;;;;;4802917;29;46186;-74
2023/01/18 12:57:42;;;;;;;;;1.75;1.75;;;;;;;;4802494;29;45542;-76
2023/01/18 13:00:14;;;;;;;;;2.50;2.50;;;;;;;;4801799;29;45392;-76
2023/01/18 13:02:40;;;;;;;;;3.25;3.25;;;;;;;;4802097;29;45509;-76
2023/01/18 13:05:32;;;;;;;;;2.00;1.50;;;;;;;;4801463;29;46401;-76
2023/01/18 13:08:03;;;;;;;;;3.00;3.00;;;;;;;;4800684;29;45459;-76
2023/01/18 13:10:28;;;;;;;;;3.00;2.50;;;;;;;;4814856;29;45489;-75
2023/01/18 13:12:55;;;;;;;;;2.00;2.00;;;;;;;;4820476;29;45450;-74
2023/01/18 13:15:20;;;;;;;;;3.50;3.50;;;;;;;;4820307;29;46555;-75
2023/01/18 13:17:51;;;;;;;;;3.00;3.00;;;;;;;;4819435;29;45610;-76
2023/01/18 13:20:21;;;;;;;;;2.50;2.00;;;;;;;;4838095;29;45589;-75
2023/01/18 13:22:55;;;;;;;;;2.00;2.00;;;;;;;;4896821;28;45511;-75
2023/01/18 13:25:26;;;;;;;;;0.00;0.00;;;;;;;;4896931;28;47368;-75
2023/01/18 13:27:58;;;;;;;;;3.00;3.00;;;;;;;;4896718;28;45390;-75
2023/01/18 13:30:24;;;;;;;;;1.00;1.00;;;;;;;;4896394;28;45497;-76
2023/01/18 13:32:50;;;;;;;;;2.00;2.00;;;;;;;;4900398;28;45486;-76
2023/01/18 13:35:30;;;;;;;;;2.50;2.00;;;;;;;;4900694;28;47059;-75
2023/01/18 13:37:57;;;;;;;;;2.75;2.00;;;;;;;;4900511;29;45443;-77
2023/01/18 13:40:42;;;;;;;;;3.25;2.75;;;;;;;;4900286;28;45418;-76
2023/01/18 13:43:26;;;;;;;;;4.00;3.00;;;;;;;;4894659;29;45414;-76
2023/01/18 13:46:12;;;;;;;;;3.00;3.00;;;;;;;;4900188;28;45675;-75
2023/01/18 13:48:40;;;;;;;;;3.00;1.50;;;;;;;;4896253;28;45319;-76
2023/01/18 13:51:05;;;;;;;;;1.75;1.75;;;;;;;;4900558;28;45539;-76
2023/01/18 13:53:46;;;;;;;;;2.25;2.00;;;;;;;;4899931;28;45572;-75
2023/01/18 13:56:20;;;;;;;;;3.00;1.00;;;;;;;;4900146;28;46988;-76
2023/01/18 13:58:52;;;;;;;;;0.00;0.00;;;;;;;;4900079;28;45419;-75
2023/01/18 14:01:21;;;;;;;;;2.00;2.00;;;;;;;;4900549;28;45705;-75
2023/01/18 14:03:48;;;;;;;;;2.00;2.00;;;;;;;;4900558;28;45489;-75
2023/01/18 14:06:34;;;;;;;;;3.00;3.00;;;;;;;;4900049;28;45413;-76
2023/01/18 14:09:05;;;;;;;;;2.00;2.00;;;;;;;;4900282;28;45689;-74
2023/01/18 14:11:33;;;;;;;;;3.75;2.25;;;;;;;;4899500;28;45436;-74
2023/01/18 14:14:01;;;;;;;;;2.00;2.00;;;;;;;;4900338;29;45400;-75
2023/01/18 14:16:28;;;;;;;;;1.00;1.00;;;;;;;;4900049;28;46209;-74
2023/01/18 14:19:20;;;;;;;;;1.25;1.25;;;;;;;;4900066;29;45460;-74
2023/01/18 14:21:53;;;;;;;;;1.00;1.00;;;;;;;;4899218;29;45713;-74
2023/01/18 14:24:25;;;;;;;;;2.50;2.50;;;;;;;;4899693;28;45639;-75
2023/01/18 14:26:51;;;;;;;;;3.00;1.00;;;;;;;;4899775;29;46655;-75
2023/01/18 14:29:23;;;;;;;;;3.75;1.75;;;;;;;;4904915;28;46183;-75
2023/01/18 14:31:51;;;;;;;;;5.00;1.00;;;;;;;;4919695;28;45350;-75
2023/01/18 14:34:29;;;;;;;;;1.00;1.00;;;;;;;;4919612;28;45468;-75
2023/01/18 14:36:54;;;;;;;;;2.00;2.00;;;;;;;;4918932;28;46395;-75
2023/01/18 14:39:20;;;;;;;;;1.00;1.00;;;;;;;;4919752;28;45401;-74
2023/01/18 14:42:00;;;;;;;;;4.00;1.75;;;;;;;;4919590;28;45485;-75
2023/01/18 14:44:42;;;;;;;;;2.75;2.25;;;;;;;;4920163;28;45401;-75
2023/01/18 14:47:16;;;;;;;;;2.75;2.75;;;;;;;;4919254;28;45424;-74
2023/01/18 14:49:42;;;;;;;;;2.00;2.00;;;;;;;;4919589;28;45482;-74
2023/01/18 14:52:11;;;;;;;;;5.75;3.50;;;;;;;;4919777;28;45491;-77
2023/01/18 14:54:37;;;;;;;;;3.00;2.00;;;;;;;;4917750;28;45327;-76
2023/01/18 14:57:04;;;;;;;;;4.00;3.00;;;;;;;;4918525;28;46375;-75
2023/01/18 14:59:32;;;;;;;;;3.00;3.00;;;;;;;;4918532;28;45410;-75
2023/01/18 15:02:01;;;;;;;;;2.00;2.00;;;;;;;;4917321;28;45358;-75